createdAt,value
2018-08-27T00:01:19.552Z,53.60
2018-08-27T00:06:23.439Z,53.10
2018-08-27T00:11:32.294Z,53.60
2018-08-27T00:16:36.987Z,53.40
2018-08-27T00:21:42.186Z,53.80
2018-08-27T00:26:46.403Z,53.70
2018-08-27T00:31:51.887Z,54.20
2018-08-27T00:36:56.727Z,54.60
2018-08-27T00:42:01.060Z,54.60
2018-08-27T00:47:05.680Z,54.60
2018-08-27T00:52:09.677Z,54.60
2018-08-27T00:57:14.298Z,54.60
2018-08-27T01:02:18.350Z,54.40
2018-08-27T01:07:23.041Z,53.60
2018-08-27T01:12:27.280Z,53.60
2018-08-27T01:17:32.585Z,53.80
2018-08-27T01:22:36.660Z,54.30
2018-08-27T01:27:40.778Z,54.80
2018-08-27T01:32:45.307Z,54.00
2018-08-27T01:37:49.566Z,53.90
2018-08-27T01:42:55.965Z,54.30
2018-08-27T01:48:00.289Z,54.60
2018-08-27T01:53:04.499Z,53.50
2018-08-27T01:58:10.593Z,53.40
2018-08-27T02:03:14.839Z,54.10
2018-08-27T02:08:21.219Z,54.20
2018-08-27T02:13:25.995Z,53.70
2018-08-27T02:18:30.704Z,54.00
2018-08-27T02:23:34.903Z,54.10
2018-08-27T02:28:50.880Z,54.00
2018-08-27T02:33:55.538Z,54.70
2018-08-27T02:39:00.665Z,54.30
2018-08-27T02:44:04.935Z,54.70
2018-08-27T02:49:09.426Z,53.30
2018-08-27T02:54:13.830Z,54.00
2018-08-27T02:59:18.281Z,53.90
2018-08-27T03:04:22.424Z,54.30
2018-08-27T03:09:26.812Z,54.00
2018-08-27T03:14:30.880Z,53.90
2018-08-27T03:19:35.095Z,54.10
2018-08-27T03:24:38.920Z,54.20
2018-08-27T03:29:43.168Z,54.70
2018-08-27T03:34:48.522Z,54.30
2018-08-27T03:39:54.427Z,54.20
2018-08-27T03:45:00.034Z,53.70
2018-08-27T03:50:06.742Z,53.60
2018-08-27T03:55:11.292Z,53.00
2018-08-27T04:00:16.654Z,53.60
2018-08-27T04:05:21.447Z,53.70
2018-08-27T04:10:26.461Z,54.40
2018-08-27T04:15:30.446Z,54.30
2018-08-27T04:20:35.238Z,53.90
2018-08-27T04:25:40.900Z,54.20
2018-08-27T04:30:45.157Z,54.40
2018-08-27T04:35:50.310Z,54.90
2018-08-27T04:40:54.681Z,54.70
2018-08-27T04:45:58.972Z,54.70
2018-08-27T04:51:03.095Z,54.80
2018-08-27T04:56:07.222Z,54.40
2018-08-27T05:01:12.465Z,54.20
2018-08-27T05:06:16.509Z,54.80
2018-08-27T05:11:21.250Z,55.10
2018-08-27T05:16:26.504Z,55.60
2018-08-27T05:21:35.889Z,55.40
2018-08-27T05:26:40.112Z,56.00
2018-08-27T05:31:44.362Z,55.60
2018-08-27T05:36:52.765Z,54.00
2018-08-27T05:41:57.060Z,54.70
2018-08-27T05:47:01.673Z,54.80
2018-08-27T05:52:07.582Z,55.60
2018-08-27T05:57:12.121Z,54.80
2018-08-27T06:02:18.148Z,55.00
2018-08-27T06:07:22.077Z,55.30
2018-08-27T06:12:26.131Z,55.40
2018-08-27T06:17:30.041Z,55.50
2018-08-27T06:22:34.179Z,54.30
2018-08-27T06:27:39.344Z,52.60
2018-08-27T06:32:43.291Z,52.70
2018-08-27T06:37:49.540Z,52.90
2018-08-27T06:42:53.614Z,52.70
2018-08-27T06:47:58.765Z,52.00
2018-08-27T06:53:04.328Z,51.20
2018-08-27T06:58:11.215Z,51.00
2018-08-27T07:03:15.683Z,50.70
2018-08-27T07:08:20.262Z,50.50
2018-08-27T07:13:24.744Z,50.00
2018-08-27T07:18:30.096Z,49.00
2018-08-27T07:29:01.787Z,48.40
2018-08-27T07:34:06.127Z,46.00
2018-08-27T07:39:11.330Z,46.10
2018-08-27T07:44:15.407Z,45.60
2018-08-27T07:49:19.390Z,44.00
2018-08-27T07:54:23.594Z,44.40
2018-08-27T07:59:28.416Z,43.50
2018-08-27T08:04:33.294Z,43.60
2018-08-27T08:09:37.909Z,44.40
2018-08-27T08:14:42.058Z,44.90
2018-08-27T08:19:46.236Z,45.10
2018-08-27T08:24:51.103Z,46.20
2018-08-27T08:29:55.269Z,45.00
2018-08-27T08:34:59.745Z,43.10
2018-08-27T08:40:03.771Z,43.00
2018-08-27T08:45:07.652Z,42.10
2018-08-27T08:50:11.455Z,41.80
2018-08-27T08:55:15.617Z,42.00
2018-08-27T09:00:20.008Z,42.80
2018-08-27T09:05:24.038Z,43.00
2018-08-27T09:10:27.845Z,43.10
2018-08-27T09:15:31.547Z,41.50
2018-08-27T09:20:35.529Z,42.10
2018-08-27T09:25:40.440Z,41.60
2018-08-27T09:30:44.493Z,41.40
2018-08-27T09:35:51.036Z,40.50
2018-08-27T09:40:56.872Z,40.70
2018-08-27T09:46:00.990Z,39.40
2018-08-27T09:51:05.616Z,38.60
2018-08-27T09:56:11.290Z,37.60
2018-08-27T10:01:20.837Z,37.20
2018-08-27T10:06:24.875Z,36.80
2018-08-27T10:11:30.700Z,35.50
2018-08-27T10:16:34.530Z,36.10
2018-08-27T10:21:38.270Z,36.20
2018-08-27T10:26:42.171Z,37.10
2018-08-27T10:31:48.057Z,36.60
2018-08-27T10:36:51.775Z,35.70
2018-08-27T10:41:56.417Z,35.50
2018-08-27T10:47:01.097Z,35.60
2018-08-27T10:52:09.769Z,34.80
2018-08-27T10:57:15.025Z,33.30
2018-08-27T11:02:18.833Z,33.80
2018-08-27T11:07:25.871Z,32.90
2018-08-27T11:12:29.601Z,30.00
2018-08-27T11:17:39.915Z,29.80
2018-08-27T11:22:44.516Z,30.50
2018-08-27T11:27:48.772Z,30.20
2018-08-27T11:32:52.649Z,29.40
2018-08-27T11:37:57.111Z,31.40
2018-08-27T11:43:00.995Z,31.50
2018-08-27T11:48:05.363Z,31.60
2018-08-27T11:53:10.745Z,31.70
2018-08-27T11:58:14.741Z,32.40
2018-08-27T12:03:18.962Z,32.10
2018-08-27T12:08:22.984Z,31.20
2018-08-27T12:13:27.890Z,30.50
2018-08-27T12:18:31.800Z,32.00
2018-08-27T12:23:36.055Z,31.70
2018-08-27T12:28:40.294Z,31.70
2018-08-27T12:33:44.603Z,31.60
2018-08-27T12:38:48.719Z,31.80
2018-08-27T12:43:52.963Z,32.40
2018-08-27T12:48:57.109Z,32.20
2018-08-27T12:54:01.406Z,33.10
2018-08-27T12:59:07.325Z,32.50
2018-08-27T13:04:12.010Z,33.80
2018-08-27T13:09:17.490Z,33.80
2018-08-27T13:14:21.695Z,33.30
2018-08-27T13:19:25.942Z,34.10
2018-08-27T13:24:30.516Z,33.50
2018-08-27T13:29:35.161Z,34.00
2018-08-27T13:34:39.369Z,34.60
2018-08-27T13:39:44.228Z,34.80
2018-08-27T13:44:50.803Z,33.70
2018-08-27T13:49:54.939Z,34.20
2018-08-27T13:54:59.086Z,34.30
2018-08-27T14:00:03.832Z,35.20
2018-08-27T14:05:08.794Z,35.50
2018-08-27T14:10:15.635Z,33.70
2018-08-27T14:15:20.154Z,33.60
2018-08-27T14:20:25.418Z,34.50
2018-08-27T14:25:30.999Z,32.80
2018-08-27T14:30:35.512Z,33.00
2018-08-27T14:35:41.518Z,33.40
2018-08-27T14:40:45.524Z,33.90
2018-08-27T14:45:49.888Z,33.90
2018-08-27T14:50:54.040Z,33.90
2018-08-27T14:55:57.798Z,34.30
2018-08-27T15:01:07.098Z,34.30
2018-08-27T15:11:26.442Z,33.20
2018-08-27T15:16:31.445Z,34.10
2018-08-27T15:21:35.584Z,34.30
2018-08-27T15:26:45.455Z,34.50
2018-08-27T15:31:49.420Z,35.30
2018-08-27T15:36:54.349Z,34.80
2018-08-27T15:41:58.507Z,35.50
2018-08-27T15:47:05.146Z,36.00
2018-08-27T15:52:10.812Z,35.70
2018-08-27T15:57:23.505Z,35.90
2018-08-27T17:31:50.363Z,39.40
2018-08-27T18:23:57.996Z,38.80
2018-08-27T19:24:33.282Z,41.50
2018-08-27T19:29:38.435Z,45.70
2018-08-27T19:34:43.221Z,45.40
2018-08-27T19:39:47.248Z,45.90
2018-08-27T19:44:51.200Z,45.40
2018-08-27T19:49:55.054Z,45.50
2018-08-27T19:55:04.355Z,45.70
2018-08-27T20:00:08.594Z,46.00
2018-08-27T20:05:12.640Z,46.40
2018-08-27T20:10:16.750Z,46.90
2018-08-27T20:15:20.961Z,47.30
2018-08-27T20:20:25.609Z,47.90
2018-08-27T20:25:29.559Z,47.50
2018-08-27T20:30:33.496Z,48.10
2018-08-27T20:35:37.510Z,48.50
2018-08-27T20:40:41.441Z,49.00
2018-08-27T20:45:45.376Z,49.60
2018-08-27T20:50:49.392Z,49.40
2018-08-27T20:55:53.482Z,49.30
2018-08-27T21:00:57.598Z,49.70
2018-08-27T21:06:01.530Z,49.40
2018-08-27T21:11:05.619Z,49.50
2018-08-27T21:16:09.741Z,49.40
2018-08-27T21:21:13.627Z,49.10
2018-08-27T21:26:17.705Z,49.00
2018-08-27T21:31:21.627Z,49.40
2018-08-27T21:36:25.908Z,48.60
2018-08-27T21:41:29.821Z,49.10
2018-08-27T21:46:33.656Z,49.20
2018-08-27T21:51:37.493Z,49.80
2018-08-27T21:56:41.467Z,50.10
2018-08-27T22:01:49.564Z,50.90
2018-08-27T22:06:53.514Z,50.70
2018-08-27T22:11:57.490Z,51.00
2018-08-27T22:17:01.887Z,51.20
2018-08-27T22:22:05.911Z,52.10
2018-08-27T22:27:09.863Z,51.70
2018-08-27T22:32:13.894Z,52.30
2018-08-27T22:37:17.826Z,51.70
2018-08-27T22:42:21.707Z,51.10
2018-08-27T22:47:25.752Z,51.40
2018-08-27T22:52:29.804Z,51.70
2018-08-27T22:57:41.867Z,52.70
2018-08-27T23:02:51.082Z,53.10
2018-08-27T23:07:54.916Z,52.90
2018-08-27T23:12:58.787Z,52.00
2018-08-27T23:18:02.827Z,53.20
2018-08-27T23:23:06.859Z,53.90
2018-08-27T23:33:46.826Z,53.80
2018-08-27T23:38:50.685Z,53.80
2018-08-27T23:43:54.556Z,53.90
2018-08-27T23:48:58.499Z,54.40
2018-08-27T23:54:02.576Z,54.60
2018-08-27T23:59:06.737Z,54.60
